sensor_id;sensor_type;location;lat;lon;timestamp;pressure;altitude;pressure_sealevel;temperature;humidity
59493;BME280;45497;43.996;22.876;2023-10-19T00:00:40;101202.50;;;9.26;48.12
59493;BME280;45497;43.996;22.876;2023-10-19T00:03:10;101202.94;;;9.22;48.30
59493;BME280;45497;43.996;22.876;2023-10-19T00:05:38;101203.63;;;9.06;48.57
59493;BME280;45497;43.996;22.876;2023-10-19T00:08:08;101204.47;;;8.96;49.29
59493;BME280;45497;43.996;22.876;2023-10-19T00:11:03;101209.22;;;8.93;49.50
59493;BME280;45497;43.996;22.876;2023-10-19T00:13:49;101202.09;;;8.75;50.08
59493;BME280;45497;43.996;22.876;2023-10-19T00:16:36;101202.81;;;8.68;50.16
59493;BME280;45497;43.996;22.876;2023-10-19T00:19:01;101196.88;;;8.56;50.80
59493;BME280;45497;43.996;22.876;2023-10-19T00:21:28;101209.69;;;8.51;50.89
59493;BME280;45497;43.996;22.876;2023-10-19T00:23:56;101202.59;;;8.41;51.09
59493;BME280;45497;43.996;22.876;2023-10-19T00:26:29;101209.97;;;8.48;50.41
59493;BME280;45497;43.996;22.876;2023-10-19T00:28:56;101206.50;;;8.47;50.66
59493;BME280;45497;43.996;22.876;2023-10-19T00:31:25;101207.34;;;8.28;51.40
59493;BME280;45497;43.996;22.876;2023-10-19T00:33:56;101203.31;;;8.24;51.07
59493;BME280;45497;43.996;22.876;2023-10-19T00:36:23;101195.81;;;8.29;50.93
59493;BME280;45497;43.996;22.876;2023-10-19T00:38:49;101197.19;;;8.33;50.86
59493;BME280;45497;43.996;22.876;2023-10-19T00:41:18;101198.19;;;8.22;51.62
59493;BME280;45497;43.996;22.876;2023-10-19T00:43:55;101208.59;;;8.34;51.10
59493;BME280;45497;43.996;22.876;2023-10-19T00:46:42;101204.00;;;8.36;50.90
59493;BME280;45497;43.996;22.876;2023-10-19T00:49:09;101203.47;;;8.32;51.14
59493;BME280;45497;43.996;22.876;2023-10-19T00:51:44;101201.22;;;8.28;51.14
59493;BME280;45497;43.996;22.876;2023-10-19T00:54:27;101197.63;;;8.19;51.52
59493;BME280;45497;43.996;22.876;2023-10-19T00:57:00;101198.91;;;8.15;51.85
59493;BME280;45497;43.996;22.876;2023-10-19T00:59:49;101206.97;;;8.13;51.75
59493;BME280;45497;43.996;22.876;2023-10-19T01:02:18;101204.22;;;7.95;52.65
59493;BME280;45497;43.996;22.876;2023-10-19T01:05:07;101203.66;;;7.92;52.81
59493;BME280;45497;43.996;22.876;2023-10-19T01:07:33;101198.50;;;8.10;52.19
59493;BME280;45497;43.996;22.876;2023-10-19T01:10:03;101199.47;;;8.09;52.58
59493;BME280;45497;43.996;22.876;2023-10-19T01:12:51;101192.63;;;8.26;52.12
59493;BME280;45497;43.996;22.876;2023-10-19T01:15:18;101189.66;;;8.38;51.50
59493;BME280;45497;43.996;22.876;2023-10-19T01:17:57;101194.94;;;8.38;51.32
59493;BME280;45497;43.996;22.876;2023-10-19T01:20:25;101193.56;;;8.44;51.50
59493;BME280;45497;43.996;22.876;2023-10-19T01:22:55;101183.00;;;8.44;51.51
59493;BME280;45497;43.996;22.876;2023-10-19T01:25:57;101181.59;;;8.50;51.50
59493;BME280;45497;43.996;22.876;2023-10-19T01:33:48;101168.25;;;8.51;51.58
59493;BME280;45497;43.996;22.876;2023-10-19T01:36:14;101165.16;;;8.56;51.51
59493;BME280;45497;43.996;22.876;2023-10-19T01:38:48;101166.78;;;8.67;51.30
59493;BME280;45497;43.996;22.876;2023-10-19T01:41:14;101164.09;;;8.76;50.95
59493;BME280;45497;43.996;22.876;2023-10-19T01:43:51;101166.84;;;8.85;51.06
59493;BME280;45497;43.996;22.876;2023-10-19T01:46:21;101162.13;;;8.78;50.75
59493;BME280;45497;43.996;22.876;2023-10-19T01:48:54;101167.59;;;8.77;50.87
59493;BME280;45497;43.996;22.876;2023-10-19T01:51:24;101171.88;;;8.78;51.01
59493;BME280;45497;43.996;22.876;2023-10-19T01:53:54;101176.97;;;8.89;50.62
59493;BME280;45497;43.996;22.876;2023-10-19T01:56:24;101185.38;;;9.03;50.10
59493;BME280;45497;43.996;22.876;2023-10-19T01:58:50;101180.09;;;9.03;50.43
59493;BME280;45497;43.996;22.876;2023-10-19T02:01:20;101172.03;;;9.04;50.18
59493;BME280;45497;43.996;22.876;2023-10-19T02:03:49;101176.41;;;9.13;49.81
59493;BME280;45497;43.996;22.876;2023-10-19T02:06:20;101169.16;;;9.15;49.55
59493;BME280;45497;43.996;22.876;2023-10-19T02:08:56;101161.47;;;9.22;49.63
59493;BME280;45497;43.996;22.876;2023-10-19T02:11:26;101163.94;;;9.24;49.31
59493;BME280;45497;43.996;22.876;2023-10-19T02:13:55;101174.09;;;9.28;49.28
59493;BME280;45497;43.996;22.876;2023-10-19T02:16:26;101166.28;;;9.27;49.30
59493;BME280;45497;43.996;22.876;2023-10-19T02:18:52;101170.75;;;9.26;49.16
59493;BME280;45497;43.996;22.876;2023-10-19T02:21:21;101167.44;;;9.24;48.99
59493;BME280;45497;43.996;22.876;2023-10-19T02:23:50;101166.50;;;9.15;49.90
59493;BME280;45497;43.996;22.876;2023-10-19T02:26:20;101157.66;;;9.07;49.60
59493;BME280;45497;43.996;22.876;2023-10-19T02:28:48;101167.72;;;9.03;49.89
59493;BME280;45497;43.996;22.876;2023-10-19T02:31:17;101165.13;;;8.93;50.26
59493;BME280;45497;43.996;22.876;2023-10-19T02:33:54;101168.50;;;8.86;50.75
59493;BME280;45497;43.996;22.876;2023-10-19T02:36:30;101172.00;;;8.86;51.02
59493;BME280;45497;43.996;22.876;2023-10-19T02:38:56;101172.69;;;8.78;51.61
59493;BME280;45497;43.996;22.876;2023-10-19T02:41:26;101167.38;;;8.88;51.24
59493;BME280;45497;43.996;22.876;2023-10-19T02:43:55;101163.03;;;8.97;50.31
59493;BME280;45497;43.996;22.876;2023-10-19T02:46:38;101149.19;;;9.03;50.48
59493;BME280;45497;43.996;22.876;2023-10-19T02:49:05;101158.06;;;9.12;50.34
59493;BME280;45497;43.996;22.876;2023-10-19T02:51:41;101159.50;;;9.24;50.20
59493;BME280;45497;43.996;22.876;2023-10-19T02:54:12;101150.13;;;9.30;50.00
59493;BME280;45497;43.996;22.876;2023-10-19T02:57:01;101164.31;;;9.29;50.00
59493;BME280;45497;43.996;22.876;2023-10-19T02:59:31;101175.06;;;9.27;49.97
59493;BME280;45497;43.996;22.876;2023-10-19T03:01:59;101171.88;;;9.24;50.68
59493;BME280;45497;43.996;22.876;2023-10-19T03:04:38;101169.41;;;9.40;49.98
59493;BME280;45497;43.996;22.876;2023-10-19T03:07:12;101173.47;;;9.52;49.90
59493;BME280;45497;43.996;22.876;2023-10-19T03:09:38;101156.38;;;9.47;49.84
59493;BME280;45497;43.996;22.876;2023-10-19T03:12:04;101135.16;;;9.56;50.15
59493;BME280;45497;43.996;22.876;2023-10-19T03:14:50;101132.03;;;9.61;49.64
59493;BME280;45497;43.996;22.876;2023-10-19T03:17:16;101129.22;;;9.63;49.34
59493;BME280;45497;43.996;22.876;2023-10-19T03:19:41;101135.88;;;9.67;49.29
59493;BME280;45497;43.996;22.876;2023-10-19T03:22:07;101143.53;;;9.52;49.46
59493;BME280;45497;43.996;22.876;2023-10-19T03:24:34;101138.19;;;9.44;50.34
59493;BME280;45497;43.996;22.876;2023-10-19T03:27:13;101138.31;;;9.60;49.96
59493;BME280;45497;43.996;22.876;2023-10-19T03:29:48;101129.59;;;9.68;49.71
59493;BME280;45497;43.996;22.876;2023-10-19T03:32:20;101137.25;;;9.71;49.78
59493;BME280;45497;43.996;22.876;2023-10-19T03:34:53;101128.31;;;9.72;49.46
59493;BME280;45497;43.996;22.876;2023-10-19T03:37:26;101112.78;;;9.77;49.33
59493;BME280;45497;43.996;22.876;2023-10-19T03:39:54;101108.50;;;9.76;49.39
59493;BME280;45497;43.996;22.876;2023-10-19T03:42:25;101119.25;;;9.74;49.66
59493;BME280;45497;43.996;22.876;2023-10-19T03:44:53;101131.66;;;9.56;50.23
59493;BME280;45497;43.996;22.876;2023-10-19T03:47:22;101126.91;;;9.42;50.83
59493;BME280;45497;43.996;22.876;2023-10-19T03:50:10;101137.72;;;9.30;51.56
59493;BME280;45497;43.996;22.876;2023-10-19T03:52:45;101138.88;;;9.28;51.04
59493;BME280;45497;43.996;22.876;2023-10-19T03:55:11;101149.41;;;8.92;51.68
59493;BME280;45497;43.996;22.876;2023-10-19T03:57:40;101132.47;;;8.57;51.87
59493;BME280;45497;43.996;22.876;2023-10-19T04:00:16;101107.06;;;8.74;51.83
59493;BME280;45497;43.996;22.876;2023-10-19T04:02:41;101101.69;;;8.93;51.45
59493;BME280;45497;43.996;22.876;2023-10-19T04:05:08;101105.81;;;9.14;50.32
59493;BME280;45497;43.996;22.876;2023-10-19T04:07:57;101089.72;;;9.25;50.39
59493;BME280;45497;43.996;22.876;2023-10-19T04:10:24;101089.72;;;9.43;50.01
59493;BME280;45497;43.996;22.876;2023-10-19T04:13:04;101089.31;;;9.56;49.67
59493;BME280;45497;43.996;22.876;2023-10-19T04:15:30;101080.09;;;9.60;49.34
59493;BME280;45497;43.996;22.876;2023-10-19T04:18:00;101090.47;;;9.53;49.78
59493;BME280;45497;43.996;22.876;2023-10-19T04:20:26;101087.53;;;9.38;50.20
59493;BME280;45497;43.996;22.876;2023-10-19T04:23:04;101086.25;;;9.25;50.42
59493;BME280;45497;43.996;22.876;2023-10-19T04:25:39;101094.94;;;9.35;50.48
59493;BME280;45497;43.996;22.876;2023-10-19T04:28:07;101092.72;;;9.48;49.77
59493;BME280;45497;43.996;22.876;2023-10-19T04:30:36;101090.53;;;9.62;49.64
59493;BME280;45497;43.996;22.876;2023-10-19T04:33:04;101084.47;;;9.69;49.51
59493;BME280;45497;43.996;22.876;2023-10-19T04:35:35;101086.03;;;9.80;49.25
59493;BME280;45497;43.996;22.876;2023-10-19T04:38:01;101098.63;;;9.86;48.74
59493;BME280;45497;43.996;22.876;2023-10-19T04:40:27;101097.66;;;9.87;49.46
59493;BME280;45497;43.996;22.876;2023-10-19T04:42:53;101091.53;;;9.87;49.45
59493;BME280;45497;43.996;22.876;2023-10-19T04:45:20;101095.41;;;9.74;49.38
59493;BME280;45497;43.996;22.876;2023-10-19T04:47:49;101083.31;;;9.72;49.90
59493;BME280;45497;43.996;22.876;2023-10-19T04:50:18;101086.03;;;9.80;49.60
59493;BME280;45497;43.996;22.876;2023-10-19T04:52:46;101089.06;;;9.93;49.30
59493;BME280;45497;43.996;22.876;2023-10-19T04:55:13;101080.44;;;9.91;49.36
59493;BME280;45497;43.996;22.876;2023-10-19T04:57:39;101093.44;;;9.76;49.74
59493;BME280;45497;43.996;22.876;2023-10-19T05:00:05;101103.81;;;9.70;50.06
59493;BME280;45497;43.996;22.876;2023-10-19T05:02:31;101103.59;;;9.63;50.25
59493;BME280;45497;43.996;22.876;2023-10-19T05:04:57;101099.19;;;9.72;50.26
59493;BME280;45497;43.996;22.876;2023-10-19T05:07:23;101096.13;;;9.85;50.25
59493;BME280;45497;43.996;22.876;2023-10-19T05:09:50;101104.13;;;9.93;49.53
59493;BME280;45497;43.996;22.876;2023-10-19T05:12:16;101106.16;;;9.99;49.48
59493;BME280;45497;43.996;22.876;2023-10-19T05:14:42;101115.41;;;9.95;49.79
59493;BME280;45497;43.996;22.876;2023-10-19T05:17:08;101104.13;;;9.93;49.31
59493;BME280;45497;43.996;22.876;2023-10-19T05:19:39;101109.38;;;10.11;49.47
59493;BME280;45497;43.996;22.876;2023-10-19T05:22:07;101101.44;;;10.11;49.36
59493;BME280;45497;43.996;22.876;2023-10-19T05:24:37;101107.50;;;10.03;49.48
59493;BME280;45497;43.996;22.876;2023-10-19T05:27:03;101116.91;;;9.98;49.61
59493;BME280;45497;43.996;22.876;2023-10-19T05:29:31;101124.84;;;9.71;50.74
59493;BME280;45497;43.996;22.876;2023-10-19T05:31:59;101122.19;;;9.71;50.32
59493;BME280;45497;43.996;22.876;2023-10-19T05:34:33;101112.94;;;9.75;50.60
59493;BME280;45497;43.996;22.876;2023-10-19T05:37:00;101105.91;;;9.84;50.04
59493;BME280;45497;43.996;22.876;2023-10-19T05:39:28;101113.69;;;9.86;49.84
59493;BME280;45497;43.996;22.876;2023-10-19T05:41:57;101106.56;;;9.86;49.70
59493;BME280;45497;43.996;22.876;2023-10-19T05:44:27;101109.38;;;9.85;50.36
59493;BME280;45497;43.996;22.876;2023-10-19T05:46:53;101103.72;;;9.80;51.24
59493;BME280;45497;43.996;22.876;2023-10-19T05:49:20;101122.16;;;9.89;51.06
59493;BME280;45497;43.996;22.876;2023-10-19T05:51:48;101115.22;;;9.70;52.79
59493;BME280;45497;43.996;22.876;2023-10-19T05:54:15;101115.47;;;9.59;53.06
59493;BME280;45497;43.996;22.876;2023-10-19T05:56:43;101111.38;;;9.65;53.17
59493;BME280;45497;43.996;22.876;2023-10-19T05:59:09;101108.41;;;9.86;53.04
59493;BME280;45497;43.996;22.876;2023-10-19T06:01:39;101095.22;;;9.94;52.99
59493;BME280;45497;43.996;22.876;2023-10-19T06:04:07;101102.56;;;9.82;53.15
59493;BME280;45497;43.996;22.876;2023-10-19T06:06:33;101113.91;;;9.92;52.92
59493;BME280;45497;43.996;22.876;2023-10-19T06:09:00;101124.63;;;9.65;54.52
59493;BME280;45497;43.996;22.876;2023-10-19T06:11:40;101121.81;;;9.66;54.89
59493;BME280;45497;43.996;22.876;2023-10-19T06:14:08;101116.72;;;9.91;53.37
59493;BME280;45497;43.996;22.876;2023-10-19T06:16:38;101105.31;;;9.99;53.47
59493;BME280;45497;43.996;22.876;2023-10-19T06:19:19;101117.25;;;10.29;52.73
59493;BME280;45497;43.996;22.876;2023-10-19T06:21:46;101118.03;;;10.21;52.77
59493;BME280;45497;43.996;22.876;2023-10-19T06:24:12;101125.59;;;10.34;52.35
59493;BME280;45497;43.996;22.876;2023-10-19T06:26:42;101132.03;;;10.31;52.47
59493;BME280;45497;43.996;22.876;2023-10-19T06:29:08;101147.16;;;10.39;52.11
59493;BME280;45497;43.996;22.876;2023-10-19T06:31:34;101145.03;;;10.51;51.97
59493;BME280;45497;43.996;22.876;2023-10-19T06:33:59;101153.72;;;10.69;51.56
59493;BME280;45497;43.996;22.876;2023-10-19T06:36:28;101155.34;;;10.62;51.04
59493;BME280;45497;43.996;22.876;2023-10-19T06:38:57;101156.88;;;10.65;51.08
59493;BME280;45497;43.996;22.876;2023-10-19T06:41:23;101154.22;;;10.65;51.21
59493;BME280;45497;43.996;22.876;2023-10-19T06:43:50;101158.50;;;10.66;51.01
59493;BME280;45497;43.996;22.876;2023-10-19T06:46:16;101160.50;;;10.64;50.68
59493;BME280;45497;43.996;22.876;2023-10-19T06:48:42;101158.25;;;10.85;50.73
59493;BME280;45497;43.996;22.876;2023-10-19T06:51:08;101160.31;;;11.08;50.45
59493;BME280;45497;43.996;22.876;2023-10-19T06:53:35;101153.38;;;11.23;49.57
59493;BME280;45497;43.996;22.876;2023-10-19T06:56:03;101156.06;;;11.32;49.16
59493;BME280;45497;43.996;22.876;2023-10-19T06:58:33;101155.22;;;11.31;49.17
59493;BME280;45497;43.996;22.876;2023-10-19T07:01:06;101154.75;;;11.44;48.93
59493;BME280;45497;43.996;22.876;2023-10-19T07:03:34;101161.88;;;11.52;48.51
59493;BME280;45497;43.996;22.876;2023-10-19T07:06:06;101150.25;;;11.61;48.40
59493;BME280;45497;43.996;22.876;2023-10-19T07:08:33;101143.66;;;11.65;48.20
59493;BME280;45497;43.996;22.876;2023-10-19T07:11:01;101145.63;;;11.55;48.30
59493;BME280;45497;43.996;22.876;2023-10-19T07:13:27;101156.44;;;11.61;47.98
59493;BME280;45497;43.996;22.876;2023-10-19T07:15:55;101155.75;;;11.67;48.03
59493;BME280;45497;43.996;22.876;2023-10-19T07:18:21;101154.91;;;11.83;47.94
59493;BME280;45497;43.996;22.876;2023-10-19T07:20:54;101155.78;;;11.92;47.37
59493;BME280;45497;43.996;22.876;2023-10-19T07:23:29;101157.06;;;11.88;47.19
59493;BME280;45497;43.996;22.876;2023-10-19T07:25:54;101156.75;;;11.83;47.24
59493;BME280;45497;43.996;22.876;2023-10-19T07:28:22;101160.22;;;11.75;47.34
59493;BME280;45497;43.996;22.876;2023-10-19T07:30:58;101155.91;;;11.99;47.17
59493;BME280;45497;43.996;22.876;2023-10-19T07:33:31;101143.44;;;12.16;47.03
59493;BME280;45497;43.996;22.876;2023-10-19T07:36:18;101144.41;;;12.23;46.69
59493;BME280;45497;43.996;22.876;2023-10-19T07:38:44;101139.53;;;12.43;46.49
59493;BME280;45497;43.996;22.876;2023-10-19T07:41:13;101140.19;;;12.37;46.46
59493;BME280;45497;43.996;22.876;2023-10-19T07:43:57;101135.44;;;12.24;46.66
59493;BME280;45497;43.996;22.876;2023-10-19T07:46:25;101132.88;;;12.47;46.51
59493;BME280;45497;43.996;22.876;2023-10-19T07:48:51;101131.16;;;12.62;46.17
59493;BME280;45497;43.996;22.876;2023-10-19T07:51:22;101134.69;;;12.86;45.93
59493;BME280;45497;43.996;22.876;2023-10-19T07:53:48;101135.47;;;12.95;45.63
59493;BME280;45497;43.996;22.876;2023-10-19T07:56:14;101134.81;;;13.16;45.51
59493;BME280;45497;43.996;22.876;2023-10-19T07:58:41;101135.69;;;13.16;45.33
59493;BME280;45497;43.996;22.876;2023-10-19T08:01:08;101133.41;;;13.28;45.34
59493;BME280;45497;43.996;22.876;2023-10-19T08:03:34;101125.88;;;13.40;45.16
59493;BME280;45497;43.996;22.876;2023-10-19T08:06:02;101120.94;;;13.52;45.11
59493;BME280;45497;43.996;22.876;2023-10-19T08:08:30;101114.66;;;13.68;44.77
59493;BME280;45497;43.996;22.876;2023-10-19T08:11:01;101125.63;;;13.88;44.67
59493;BME280;45497;43.996;22.876;2023-10-19T08:13:28;101122.31;;;14.01;44.53
59493;BME280;45497;43.996;22.876;2023-10-19T08:15:56;101124.63;;;14.04;44.08
59493;BME280;45497;43.996;22.876;2023-10-19T08:18:30;101121.63;;;14.07;44.39
59493;BME280;45497;43.996;22.876;2023-10-19T08:21:04;101109.09;;;14.07;44.35
59493;BME280;45497;43.996;22.876;2023-10-19T08:23:30;101110.59;;;14.10;44.32
59493;BME280;45497;43.996;22.876;2023-10-19T08:25:57;101099.56;;;14.28;44.34
59493;BME280;45497;43.996;22.876;2023-10-19T08:28:25;101106.25;;;14.39;43.87
59493;BME280;45497;43.996;22.876;2023-10-19T08:30:53;101102.34;;;14.56;43.71
59493;BME280;45497;43.996;22.876;2023-10-19T08:33:25;101107.59;;;14.49;43.63
59493;BME280;45497;43.996;22.876;2023-10-19T08:36:15;101101.25;;;14.50;43.75
59493;BME280;45497;43.996;22.876;2023-10-19T08:38:52;101094.84;;;14.45;43.41
59493;BME280;45497;43.996;22.876;2023-10-19T08:41:25;101088.97;;;14.34;43.88
59493;BME280;45497;43.996;22.876;2023-10-19T08:43:51;101098.22;;;14.68;43.48
59493;BME280;45497;43.996;22.876;2023-10-19T08:46:18;101102.19;;;14.94;43.41
59493;BME280;45497;43.996;22.876;2023-10-19T08:48:44;101099.50;;;15.09;43.14
59493;BME280;45497;43.996;22.876;2023-10-19T08:51:10;101101.13;;;15.10;43.27
59493;BME280;45497;43.996;22.876;2023-10-19T08:53:41;101100.84;;;15.20;43.06
59493;BME280;45497;43.996;22.876;2023-10-19T08:56:10;101095.84;;;15.38;42.85
59493;BME280;45497;43.996;22.876;2023-10-19T08:58:37;101089.56;;;15.24;42.60
59493;BME280;45497;43.996;22.876;2023-10-19T09:01:04;101088.81;;;15.31;42.39
59493;BME280;45497;43.996;22.876;2023-10-19T09:03:40;101089.91;;;15.43;42.47
59493;BME280;45497;43.996;22.876;2023-10-19T09:06:06;101082.75;;;15.43;42.35
59493;BME280;45497;43.996;22.876;2023-10-19T09:08:40;101079.47;;;15.41;42.85
59493;BME280;45497;43.996;22.876;2023-10-19T09:11:10;101078.84;;;15.46;43.20
59493;BME280;45497;43.996;22.876;2023-10-19T09:13:50;101070.47;;;15.49;43.32
59493;BME280;45497;43.996;22.876;2023-10-19T09:16:17;101065.19;;;15.56;43.07
59493;BME280;45497;43.996;22.876;2023-10-19T09:18:51;101057.34;;;15.54;43.10
59493;BME280;45497;43.996;22.876;2023-10-19T09:21:21;101064.34;;;15.55;43.04
59493;BME280;45497;43.996;22.876;2023-10-19T09:23:52;101064.41;;;15.62;42.46
59493;BME280;45497;43.996;22.876;2023-10-19T09:26:18;101067.13;;;15.68;42.55
59493;BME280;45497;43.996;22.876;2023-10-19T09:28:53;101061.16;;;15.66;42.43
59493;BME280;45497;43.996;22.876;2023-10-19T09:31:22;101052.91;;;15.68;42.36
59493;BME280;45497;43.996;22.876;2023-10-19T09:33:50;101039.13;;;15.64;42.28
59493;BME280;45497;43.996;22.876;2023-10-19T09:36:17;101044.91;;;15.68;42.35
59493;BME280;45497;43.996;22.876;2023-10-19T09:38:50;101029.28;;;15.72;42.47
59493;BME280;45497;43.996;22.876;2023-10-19T09:41:20;101028.13;;;15.74;42.70
59493;BME280;45497;43.996;22.876;2023-10-19T09:43:49;101006.91;;;15.73;42.44
59493;BME280;45497;43.996;22.876;2023-10-19T09:46:29;101016.06;;;15.92;42.45
59493;BME280;45497;43.996;22.876;2023-10-19T09:48:59;101010.38;;;16.01;42.28
59493;BME280;45497;43.996;22.876;2023-10-19T09:51:24;101023.94;;;16.00;41.58
59493;BME280;45497;43.996;22.876;2023-10-19T09:54:04;101026.25;;;15.75;41.65
59493;BME280;45497;43.996;22.876;2023-10-19T09:57:09;101020.13;;;15.81;41.40
59493;BME280;45497;43.996;22.876;2023-10-19T10:00:14;101024.03;;;15.78;41.54
59493;BME280;45497;43.996;22.876;2023-10-19T10:02:48;101014.78;;;15.81;41.63
59493;BME280;45497;43.996;22.876;2023-10-19T10:10:48;100995.00;;;16.17;41.06
59493;BME280;45497;43.996;22.876;2023-10-19T10:16:00;101007.44;;;16.44;40.99
59493;BME280;45497;43.996;22.876;2023-10-19T10:18:33;100998.03;;;16.62;40.74
59493;BME280;45497;43.996;22.876;2023-10-19T10:21:24;100991.00;;;16.54;40.52
59493;BME280;45497;43.996;22.876;2023-10-19T10:24:03;100987.69;;;16.52;40.35
59493;BME280;45497;43.996;22.876;2023-10-19T10:27:07;100982.63;;;16.84;40.44
59493;BME280;45497;43.996;22.876;2023-10-19T10:30:04;100978.69;;;16.80;40.10
59493;BME280;45497;43.996;22.876;2023-10-19T10:32:53;100950.50;;;16.84;39.72
59493;BME280;45497;43.996;22.876;2023-10-19T10:38:38;100958.34;;;17.06;39.54
59493;BME280;45497;43.996;22.876;2023-10-19T10:41:04;100957.31;;;17.20;39.73
59493;BME280;45497;43.996;22.876;2023-10-19T10:43:31;100944.09;;;17.25;39.74
59493;BME280;45497;43.996;22.876;2023-10-19T10:46:07;100928.00;;;17.45;39.73
59493;BME280;45497;43.996;22.876;2023-10-19T10:48:41;100917.00;;;17.67;39.44
59493;BME280;45497;43.996;22.876;2023-10-19T10:51:18;100918.00;;;17.66;39.73
59493;BME280;45497;43.996;22.876;2023-10-19T10:53:48;100907.09;;;17.67;39.48
59493;BME280;45497;43.996;22.876;2023-10-19T10:56:16;100916.72;;;17.82;39.49
59493;BME280;45497;43.996;22.876;2023-10-19T10:58:45;100896.69;;;17.84;39.51
59493;BME280;45497;43.996;22.876;2023-10-19T11:01:14;100905.41;;;17.86;39.35
59493;BME280;45497;43.996;22.876;2023-10-19T11:03:47;100889.84;;;18.02;40.18
59493;BME280;45497;43.996;22.876;2023-10-19T11:06:20;100887.44;;;18.50;39.88
59493;BME280;45497;43.996;22.876;2023-10-19T11:08:51;100878.38;;;18.51;39.21
59493;BME280;45497;43.996;22.876;2023-10-19T11:11:16;100875.75;;;18.38;38.86
59493;BME280;45497;43.996;22.876;2023-10-19T11:13:43;100864.91;;;18.26;39.62
59493;BME280;45497;43.996;22.876;2023-10-19T11:16:09;100852.34;;;18.20;39.32
59493;BME280;45497;43.996;22.876;2023-10-19T11:18:39;100853.47;;;18.06;39.17
59493;BME280;45497;43.996;22.876;2023-10-19T11:21:15;100849.63;;;17.95;39.59
59493;BME280;45497;43.996;22.876;2023-10-19T11:23:46;100846.28;;;18.06;39.43
59493;BME280;45497;43.996;22.876;2023-10-19T11:26:24;100833.88;;;18.05;39.15
59493;BME280;45497;43.996;22.876;2023-10-19T11:29:02;100838.63;;;18.10;39.01
59493;BME280;45497;43.996;22.876;2023-10-19T11:31:36;100833.69;;;18.07;38.86
59493;BME280;45497;43.996;22.876;2023-10-19T11:34:06;100823.59;;;18.02;38.66
59493;BME280;45497;43.996;22.876;2023-10-19T11:36:33;100813.16;;;17.87;38.81
59493;BME280;45497;43.996;22.876;2023-10-19T11:39:02;100807.06;;;18.05;38.54
59493;BME280;45497;43.996;22.876;2023-10-19T11:41:33;100794.72;;;18.04;38.41
59493;BME280;45497;43.996;22.876;2023-10-19T11:44:00;100796.72;;;18.09;38.33
59493;BME280;45497;43.996;22.876;2023-10-19T11:46:26;100819.84;;;18.10;38.25
59493;BME280;45497;43.996;22.876;2023-10-19T11:48:52;100811.13;;;18.14;38.12
59493;BME280;45497;43.996;22.876;2023-10-19T11:51:27;100805.47;;;18.29;38.00
59493;BME280;45497;43.996;22.876;2023-10-19T11:53:53;100799.06;;;18.49;37.94
59493;BME280;45497;43.996;22.876;2023-10-19T11:56:19;100787.69;;;18.53;37.54
59493;BME280;45497;43.996;22.876;2023-10-19T11:58:48;100792.63;;;18.31;37.77
59493;BME280;45497;43.996;22.876;2023-10-19T12:01:17;100781.19;;;18.43;37.66
59493;BME280;45497;43.996;22.876;2023-10-19T12:03:44;100792.13;;;18.41;37.42
59493;BME280;45497;43.996;22.876;2023-10-19T12:06:13;100794.66;;;18.36;37.42
59493;BME280;45497;43.996;22.876;2023-10-19T12:08:47;100785.94;;;18.41;37.58
59493;BME280;45497;43.996;22.876;2023-10-19T12:11:15;100763.00;;;18.45;37.15
59493;BME280;45497;43.996;22.876;2023-10-19T12:13:46;100774.50;;;18.70;37.52
59493;BME280;45497;43.996;22.876;2023-10-19T12:16:14;100762.03;;;18.58;37.08
59493;BME280;45497;43.996;22.876;2023-10-19T12:18:50;100785.78;;;18.79;37.17
59493;BME280;45497;43.996;22.876;2023-10-19T12:21:17;100770.94;;;18.77;36.94
59493;BME280;45497;43.996;22.876;2023-10-19T12:23:44;100781.94;;;18.94;37.09
59493;BME280;45497;43.996;22.876;2023-10-19T12:26:10;100770.06;;;19.01;36.93
59493;BME280;45497;43.996;22.876;2023-10-19T12:28:42;100767.91;;;19.10;36.71
59493;BME280;45497;43.996;22.876;2023-10-19T12:31:16;100754.47;;;19.10;36.77
59493;BME280;45497;43.996;22.876;2023-10-19T12:33:47;100751.25;;;19.20;36.77
59493;BME280;45497;43.996;22.876;2023-10-19T12:36:18;100740.59;;;19.13;36.48
59493;BME280;45497;43.996;22.876;2023-10-19T12:39:04;100725.06;;;19.15;36.67
59493;BME280;45497;43.996;22.876;2023-10-19T12:41:56;100718.09;;;19.26;36.56
59493;BME280;45497;43.996;22.876;2023-10-19T12:44:30;100720.84;;;19.38;36.37
59493;BME280;45497;43.996;22.876;2023-10-19T12:47:11;100726.34;;;19.43;36.24
59493;BME280;45497;43.996;22.876;2023-10-19T12:49:43;100722.66;;;19.56;36.35
59493;BME280;45497;43.996;22.876;2023-10-19T12:52:19;100726.97;;;19.57;35.94
59493;BME280;45497;43.996;22.876;2023-10-19T12:54:45;100735.06;;;19.68;36.05
59493;BME280;45497;43.996;22.876;2023-10-19T12:57:13;100724.03;;;19.89;35.92
59493;BME280;45497;43.996;22.876;2023-10-19T12:59:41;100721.69;;;19.92;35.91
59493;BME280;45497;43.996;22.876;2023-10-19T13:02:11;100706.13;;;19.82;35.35
59493;BME280;45497;43.996;22.876;2023-10-19T13:04:42;100690.22;;;19.81;35.51
59493;BME280;45497;43.996;22.876;2023-10-19T13:07:09;100668.72;;;19.93;35.35
59493;BME280;45497;43.996;22.876;2023-10-19T13:09:37;100674.44;;;19.84;35.46
59493;BME280;45497;43.996;22.876;2023-10-19T13:12:09;100686.72;;;20.04;35.28
59493;BME280;45497;43.996;22.876;2023-10-19T13:14:39;100668.47;;;20.18;35.10
59493;BME280;45497;43.996;22.876;2023-10-19T13:17:09;100665.91;;;20.11;34.85
59493;BME280;45497;43.996;22.876;2023-10-19T13:19:39;100674.22;;;19.98;34.85
59493;BME280;45497;43.996;22.876;2023-10-19T13:22:08;100657.59;;;20.01;34.92